Aegean Orion — SVA2487 — position and weather

sailwx.info

Track history (hours):
 
Tides and Currents Weather Stations Pressure Air Temp Water Temp Dewpoint Dewpoint Depression Visibility Wind Speed Wind Dir Waves Ship Positions

Aegean Orion

Last reported at 2015-Sep-03 14:33 UTC. Time now 2015-Sep-04 12:24 UTC.
Position N 37°59' E 023°33'.

; draft 2.4 m.

Type: Ship. MMSI: 239550200.

Date/timePositionNaut miles runAvg speedWind from/ knotsBaromVisibWave heightAir tempDewpointWater temp
2015-Sep-03 14:33N 37°59' E 023°33'5 5.1
2015-Sep-03 13:33N 37°57' E 023°38'0 0.0
2015-Sep-03 12:33N 37°57' E 023°38'0 0.1
2015-Sep-03 11:33N 37°57' E 023°38'0 0.0
2015-Sep-03 10:33N 37°57' E 023°38'1 0.9
2015-Sep-03 09:33N 37°56' E 023°37'0 0.0
2015-Sep-03 08:33N 37°56' E 023°37'0 0.0
2015-Sep-03 07:33N 37°56' E 023°37'4 3.8
2015-Sep-03 06:34N 37°58' E 023°33'4 3.5
2015-Sep-03 05:32N 38°01' E 023°32'1 0.1
2015-Sep-02 09:06N 38°02' E 023°32'0 0.0
2015-Sep-02 08:33N 38°02' E 023°32'3 2.1
2015-Sep-02 07:17N 38°02' E 023°35'0 0.0
2015-Sep-02 06:33N 38°02' E 023°35'0 0.4
2015-Sep-02 05:33N 38°02' E 023°36'0 0.0
2015-Sep-02 04:33N 38°02' E 023°36'0 0.0
2015-Sep-02 03:33N 38°02' E 023°36'0 0.0
2015-Sep-02 02:28N 38°02' E 023°36'1 0.6
2015-Sep-02 01:33N 38°02' E 023°35'0 0.0
2015-Sep-02 00:33N 38°02' E 023°35'0 0.0
2015-Sep-01 23:33N 38°02' E 023°35'0 0.0
2015-Sep-01 22:33N 38°02' E 023°35'0 0.0
2015-Sep-01 21:33N 38°02' E 023°35'0 0.1
2015-Sep-01 20:33N 38°02' E 023°35'0 0.0
2015-Sep-01 19:33N 38°02' E 023°35'3 0.2
2015-Sep-01 06:33N 38°02' E 023°32'0 0.1
2015-Sep-01 05:33N 38°02' E 023°32'0 0.0
2015-Aug-31 20:03N 38°02' E 023°32'3 5.3
2015-Aug-31 19:34N 37°60' E 023°33'5 5.3
2015-Aug-31 18:34N 37°57' E 023°38'0 0.0
2015-Aug-31 17:33N 37°57' E 023°38'2 1.6
2015-Aug-31 16:34N 37°56' E 023°37'2 1.8
2015-Aug-31 15:34N 37°57' E 023°34'0 0.0
2015-Aug-31 14:33N 37°57' E 023°34'0 0.0
2015-Aug-31 13:33N 37°57' E 023°34'0 0.0
2015-Aug-31 12:34N 37°57' E 023°34'3 3.0
2015-Aug-31 11:34N 37°57' E 023°38'0 0.1
2015-Aug-31 10:33N 37°57' E 023°38'0 0.0
2015-Aug-31 09:33N 37°57' E 023°38'0 0.0
2015-Aug-31 08:34N 37°57' E 023°38'5 4.7
2015-Aug-31 07:33N 37°59' E 023°33'4 3.7
2015-Aug-31 06:32N 38°02' E 023°35'0 0.0
2015-Aug-31 05:20N 38°02' E 023°35'3 3.4
2015-Aug-31 04:33N 38°02' E 023°32'  
2015-Aug-28 05:18N 38°02' E 023°32'5 7.3
2015-Aug-28 04:34N 37°57' E 023°35'2 2.5
2015-Aug-28 03:33N 37°57' E 023°38'0 0.0
2015-Aug-28 02:34N 37°57' E 023°38'2 1.6
2015-Aug-28 01:33N 37°56' E 023°37'2 1.7
2015-Aug-28 00:34N 37°57' E 023°35'0 0.0
2015-Aug-27 23:34N 37°57' E 023°35'3 3.0
2015-Aug-27 22:34N 37°57' E 023°38'0 0.0
2015-Aug-27 21:34N 37°57' E 023°38'0 0.0
2015-Aug-27 20:33N 37°57' E 023°38'3 3.3
2015-Aug-27 19:34N 37°57' E 023°34'0 0.0
2015-Aug-27 18:34N 37°57' E 023°34'0 0.0
2015-Aug-27 17:34N 37°57' E 023°34'0 0.0
2015-Aug-27 16:34N 37°57' E 023°34'0 0.0
2015-Aug-27 15:34N 37°57' E 023°34'0 0.0
2015-Aug-27 14:33N 37°57' E 023°34'0 0.0
2015-Aug-27 13:34N 37°57' E 023°34'0 0.0
2015-Aug-27 12:34N 37°57' E 023°34'0 0.0
2015-Aug-27 11:34N 37°57' E 023°34'0 0.1
2015-Aug-27 10:34N 37°57' E 023°34'3 2.6
2015-Aug-27 09:33N 37°56' E 023°37'0 0.0
2015-Aug-27 08:33N 37°56' E 023°37'0 0.0
2015-Aug-27 07:34N 37°56' E 023°37'4 3.8
2015-Aug-27 06:34N 37°58' E 023°33'5 0.4
2015-Aug-26 18:33N 38°02' E 023°31'0 0.0
2015-Aug-26 17:34N 38°02' E 023°31'0 0.0
2015-Aug-26 16:33N 38°02' E 023°31'0 0.0
2015-Aug-26 15:33N 38°02' E 023°31'5 4.7
2015-Aug-26 14:33N 37°58' E 023°33'5 4.5
2015-Aug-26 13:33N 37°57' E 023°38'0 0.0
2015-Aug-26 12:34N 37°57' E 023°38'2 1.5
2015-Aug-26 11:33N 37°57' E 023°37'4 4.4
2015-Aug-26 10:33N 37°60' E 023°33'3 2.8
2015-Aug-26 09:33N 38°02' E 023°35'0 0.0
2015-Aug-26 08:33N 38°02' E 023°35'0 0.0
2015-Aug-26 05:24N 38°02' E 023°35'3 0.1
2015-Aug-25 09:33N 38°02' E 023°32'7 6.8
2015-Aug-25 08:33N 37°56' E 023°37'1 0.9
2015-Aug-25 07:33N 37°57' E 023°38'0 0.0
2015-Aug-25 06:33N 37°57' E 023°38'0 0.0
2015-Aug-25 05:33N 37°57' E 023°38'5 4.7
2015-Aug-25 04:33N 37°59' E 023°33'3 3.1
2015-Aug-25 03:33N 38°02' E 023°32'0 0.0
2015-Aug-25 02:33N 38°02' E 023°32'0 0.0
2015-Aug-25 01:33N 38°02' E 023°32'0 0.0
2015-Aug-25 00:33N 38°02' E 023°32'0 0.0
2015-Aug-24 23:33N 38°02' E 023°32'0 0.0
2015-Aug-24 22:32N 38°02' E 023°32'1 1.0
2015-Aug-24 21:33N 38°02' E 023°31'0 0.0
2015-Aug-24 20:33N 38°02' E 023°31'0 0.0
2015-Aug-24 19:33N 38°02' E 023°31'0 0.0
2015-Aug-24 18:33N 38°02' E 023°31'1 0.7
2015-Aug-24 17:33N 38°02' E 023°31'0 0.0
2015-Aug-24 16:33N 38°02' E 023°31'1 0.6
2015-Aug-24 15:33N 38°01' E 023°32'  
Track history (hours):
 
Tides and Currents Weather Stations Pressure Air Temp Water Temp Dewpoint Dewpoint Depression Visibility Wind Speed Wind Dir Waves Ship Positions

Aegean Orion

Last reported at 2015-Sep-03 14:33 UTC. Time now 2015-Sep-04 12:24 UTC.
Position N 37°59' E 023°33'.

; draft 2.4 m.

Type: Ship. MMSI: 239550200.

Date/timePositionNaut miles runAvg speedWind from/ knotsBaromVisibWave heightAir tempDewpointWater temp
2015-Sep-03 14:33N 37°59' E 023°33'5 5.1
2015-Sep-03 13:33N 37°57' E 023°38'0 0.0
2015-Sep-03 12:33N 37°57' E 023°38'0 0.1
2015-Sep-03 11:33N 37°57' E 023°38'0 0.0
2015-Sep-03 10:33N 37°57' E 023°38'1 0.9
2015-Sep-03 09:33N 37°56' E 023°37'0 0.0
2015-Sep-03 08:33N 37°56' E 023°37'0 0.0
2015-Sep-03 07:33N 37°56' E 023°37'4 3.8
2015-Sep-03 06:34N 37°58' E 023°33'4 3.5
2015-Sep-03 05:32N 38°01' E 023°32'1 0.1
2015-Sep-02 09:06N 38°02' E 023°32'0 0.0
2015-Sep-02 08:33N 38°02' E 023°32'3 2.1
2015-Sep-02 07:17N 38°02' E 023°35'0 0.0
2015-Sep-02 06:33N 38°02' E 023°35'0 0.4
2015-Sep-02 05:33N 38°02' E 023°36'0 0.0
2015-Sep-02 04:33N 38°02' E 023°36'0 0.0
2015-Sep-02 03:33N 38°02' E 023°36'0 0.0
2015-Sep-02 02:28N 38°02' E 023°36'1 0.6
2015-Sep-02 01:33N 38°02' E 023°35'0 0.0
2015-Sep-02 00:33N 38°02' E 023°35'0 0.0
2015-Sep-01 23:33N 38°02' E 023°35'0 0.0
2015-Sep-01 22:33N 38°02' E 023°35'0 0.0
2015-Sep-01 21:33N 38°02' E 023°35'0 0.1
2015-Sep-01 20:33N 38°02' E 023°35'0 0.0
2015-Sep-01 19:33N 38°02' E 023°35'3 0.2
2015-Sep-01 06:33N 38°02' E 023°32'0 0.1
2015-Sep-01 05:33N 38°02' E 023°32'0 0.0
2015-Aug-31 20:03N 38°02' E 023°32'3 5.3
2015-Aug-31 19:34N 37°60' E 023°33'5 5.3
2015-Aug-31 18:34N 37°57' E 023°38'0 0.0
2015-Aug-31 17:33N 37°57' E 023°38'2 1.6
2015-Aug-31 16:34N 37°56' E 023°37'2 1.8
2015-Aug-31 15:34N 37°57' E 023°34'0 0.0
2015-Aug-31 14:33N 37°57' E 023°34'0 0.0
2015-Aug-31 13:33N 37°57' E 023°34'0 0.0
2015-Aug-31 12:34N 37°57' E 023°34'3 3.0
2015-Aug-31 11:34N 37°57' E 023°38'0 0.1
2015-Aug-31 10:33N 37°57' E 023°38'0 0.0
2015-Aug-31 09:33N 37°57' E 023°38'0 0.0
2015-Aug-31 08:34N 37°57' E 023°38'5 4.7
2015-Aug-31 07:33N 37°59' E 023°33'4 3.7
2015-Aug-31 06:32N 38°02' E 023°35'0 0.0
2015-Aug-31 05:20N 38°02' E 023°35'3 3.4
2015-Aug-31 04:33N 38°02' E 023°32'  
2015-Aug-28 05:18N 38°02' E 023°32'5 7.3
2015-Aug-28 04:34N 37°57' E 023°35'2 2.5
2015-Aug-28 03:33N 37°57' E 023°38'0 0.0
2015-Aug-28 02:34N 37°57' E 023°38'2 1.6
2015-Aug-28 01:33N 37°56' E 023°37'2 1.7
2015-Aug-28 00:34N 37°57' E 023°35'0 0.0
2015-Aug-27 23:34N 37°57' E 023°35'3 3.0
2015-Aug-27 22:34N 37°57' E 023°38'0 0.0
2015-Aug-27 21:34N 37°57' E 023°38'0 0.0
2015-Aug-27 20:33N 37°57' E 023°38'3 3.3
2015-Aug-27 19:34N 37°57' E 023°34'0 0.0
2015-Aug-27 18:34N 37°57' E 023°34'0 0.0
2015-Aug-27 17:34N 37°57' E 023°34'0 0.0
2015-Aug-27 16:34N 37°57' E 023°34'0 0.0
2015-Aug-27 15:34N 37°57' E 023°34'0 0.0
2015-Aug-27 14:33N 37°57' E 023°34'0 0.0
2015-Aug-27 13:34N 37°57' E 023°34'0 0.0
2015-Aug-27 12:34N 37°57' E 023°34'0 0.0
2015-Aug-27 11:34N 37°57' E 023°34'0 0.1
2015-Aug-27 10:34N 37°57' E 023°34'3 2.6
2015-Aug-27 09:33N 37°56' E 023°37'0 0.0
2015-Aug-27 08:33N 37°56' E 023°37'0 0.0
2015-Aug-27 07:34N 37°56' E 023°37'4 3.8
2015-Aug-27 06:34N 37°58' E 023°33'5 0.4
2015-Aug-26 18:33N 38°02' E 023°31'0 0.0
2015-Aug-26 17:34N 38°02' E 023°31'0 0.0
2015-Aug-26 16:33N 38°02' E 023°31'0 0.0
2015-Aug-26 15:33N 38°02' E 023°31'5 4.7
2015-Aug-26 14:33N 37°58' E 023°33'5 4.5
2015-Aug-26 13:33N 37°57' E 023°38'0 0.0
2015-Aug-26 12:34N 37°57' E 023°38'2 1.5
2015-Aug-26 11:33N 37°57' E 023°37'4 4.4
2015-Aug-26 10:33N 37°60' E 023°33'3 2.8
2015-Aug-26 09:33N 38°02' E 023°35'0 0.0
2015-Aug-26 08:33N 38°02' E 023°35'0 0.0
2015-Aug-26 05:24N 38°02' E 023°35'3 0.1
2015-Aug-25 09:33N 38°02' E 023°32'7 6.8
2015-Aug-25 08:33N 37°56' E 023°37'1 0.9
2015-Aug-25 07:33N 37°57' E 023°38'0 0.0
2015-Aug-25 06:33N 37°57' E 023°38'0 0.0
2015-Aug-25 05:33N 37°57' E 023°38'5 4.7
2015-Aug-25 04:33N 37°59' E 023°33'3 3.1
2015-Aug-25 03:33N 38°02' E 023°32'0 0.0
2015-Aug-25 02:33N 38°02' E 023°32'0 0.0
2015-Aug-25 01:33N 38°02' E 023°32'0 0.0
2015-Aug-25 00:33N 38°02' E 023°32'0 0.0
2015-Aug-24 23:33N 38°02' E 023°32'0 0.0
2015-Aug-24 22:32N 38°02' E 023°32'1 1.0
2015-Aug-24 21:33N 38°02' E 023°31'0 0.0
2015-Aug-24 20:33N 38°02' E 023°31'0 0.0
2015-Aug-24 19:33N 38°02' E 023°31'0 0.0
2015-Aug-24 18:33N 38°02' E 023°31'1 0.7
2015-Aug-24 17:33N 38°02' E 023°31'0 0.0
2015-Aug-24 16:33N 38°02' E 023°31'1 0.6
2015-Aug-24 15:33N 38°01' E 023°32'  

Dump ship's entire track history